sensor_id;sensor_type;location;lat;lon;timestamp;P1;durP1;ratioP1;P2;durP2;ratioP2
13102;SDS011;52970;46.752;17.108;2023-12-04T00:01:10;32.77;;;20.10;;
13102;SDS011;52970;46.752;17.108;2023-12-04T00:03:36;29.17;;;17.60;;
13102;SDS011;52970;46.752;17.108;2023-12-04T00:06:01;25.00;;;16.77;;
13102;SDS011;52970;46.752;17.108;2023-12-04T00:08:26;23.33;;;16.03;;
13102;SDS011;52970;46.752;17.108;2023-12-04T00:10:51;22.30;;;16.07;;
13102;SDS011;52970;46.752;17.108;2023-12-04T00:13:17;21.53;;;15.63;;
13102;SDS011;52970;46.752;17.108;2023-12-04T00:15:42;23.13;;;15.37;;
13102;SDS011;52970;46.752;17.108;2023-12-04T00:18:07;24.87;;;16.60;;
13102;SDS011;52970;46.752;17.108;2023-12-04T00:20:32;23.47;;;15.40;;
13102;SDS011;52970;46.752;17.108;2023-12-04T00:22:58;23.30;;;16.33;;
13102;SDS011;52970;46.752;17.108;2023-12-04T00:25:23;23.83;;;16.30;;
13102;SDS011;52970;46.752;17.108;2023-12-04T00:27:48;20.37;;;15.10;;
13102;SDS011;52970;46.752;17.108;2023-12-04T00:30:14;22.20;;;16.03;;
13102;SDS011;52970;46.752;17.108;2023-12-04T00:32:39;22.23;;;14.30;;
13102;SDS011;52970;46.752;17.108;2023-12-04T00:35:04;21.30;;;13.87;;
13102;SDS011;52970;46.752;17.108;2023-12-04T00:37:30;18.63;;;13.13;;
13102;SDS011;52970;46.752;17.108;2023-12-04T00:39:55;17.57;;;13.20;;
13102;SDS011;52970;46.752;17.108;2023-12-04T00:42:20;16.20;;;11.87;;
13102;SDS011;52970;46.752;17.108;2023-12-04T00:44:45;12.83;;;10.20;;
13102;SDS011;52970;46.752;17.108;2023-12-04T00:47:11;13.10;;;9.83;;
13102;SDS011;52970;46.752;17.108;2023-12-04T00:49:36;16.07;;;11.60;;
13102;SDS011;52970;46.752;17.108;2023-12-04T00:52:01;20.70;;;14.73;;
13102;SDS011;52970;46.752;17.108;2023-12-04T00:54:27;22.83;;;15.20;;
13102;SDS011;52970;46.752;17.108;2023-12-04T00:56:52;21.80;;;15.03;;
13102;SDS011;52970;46.752;17.108;2023-12-04T00:59:17;22.43;;;14.03;;
13102;SDS011;52970;46.752;17.108;2023-12-04T01:01:42;21.60;;;13.73;;
13102;SDS011;52970;46.752;17.108;2023-12-04T01:04:08;22.83;;;14.03;;
13102;SDS011;52970;46.752;17.108;2023-12-04T01:06:33;19.17;;;12.30;;
13102;SDS011;52970;46.752;17.108;2023-12-04T01:08:58;13.40;;;9.47;;
13102;SDS011;52970;46.752;17.108;2023-12-04T01:11:23;16.37;;;10.80;;
13102;SDS011;52970;46.752;17.108;2023-12-04T01:13:49;27.17;;;15.70;;
13102;SDS011;52970;46.752;17.108;2023-12-04T01:16:14;20.47;;;13.73;;
13102;SDS011;52970;46.752;17.108;2023-12-04T01:18:40;23.57;;;13.93;;
13102;SDS011;52970;46.752;17.108;2023-12-04T01:21:05;19.87;;;12.53;;
13102;SDS011;52970;46.752;17.108;2023-12-04T01:23:31;23.60;;;12.83;;
13102;SDS011;52970;46.752;17.108;2023-12-04T01:25:56;27.67;;;15.67;;
13102;SDS011;52970;46.752;17.108;2023-12-04T01:28:21;25.07;;;13.87;;
13102;SDS011;52970;46.752;17.108;2023-12-04T01:30:47;29.57;;;16.63;;
13102;SDS011;52970;46.752;17.108;2023-12-04T01:33:12;27.13;;;14.27;;
13102;SDS011;52970;46.752;17.108;2023-12-04T01:35:37;23.27;;;13.97;;
13102;SDS011;52970;46.752;17.108;2023-12-04T01:38:02;20.17;;;13.47;;
13102;SDS011;52970;46.752;17.108;2023-12-04T01:40:27;21.77;;;13.63;;
13102;SDS011;52970;46.752;17.108;2023-12-04T01:42:53;26.17;;;15.27;;
13102;SDS011;52970;46.752;17.108;2023-12-04T01:45:18;23.73;;;13.93;;
13102;SDS011;52970;46.752;17.108;2023-12-04T01:47:44;27.90;;;15.10;;
13102;SDS011;52970;46.752;17.108;2023-12-04T01:50:09;24.50;;;14.30;;
13102;SDS011;52970;46.752;17.108;2023-12-04T01:52:35;25.23;;;14.33;;
13102;SDS011;52970;46.752;17.108;2023-12-04T01:55:01;24.87;;;15.00;;
13102;SDS011;52970;46.752;17.108;2023-12-04T01:57:26;22.20;;;14.53;;
13102;SDS011;52970;46.752;17.108;2023-12-04T01:59:51;28.60;;;15.53;;
13102;SDS011;52970;46.752;17.108;2023-12-04T02:02:16;28.33;;;16.17;;
13102;SDS011;52970;46.752;17.108;2023-12-04T02:04:42;25.30;;;15.13;;
13102;SDS011;52970;46.752;17.108;2023-12-04T02:07:07;27.73;;;17.27;;
13102;SDS011;52970;46.752;17.108;2023-12-04T02:09:34;21.77;;;14.17;;
13102;SDS011;52970;46.752;17.108;2023-12-04T02:11:59;22.43;;;13.77;;
13102;SDS011;52970;46.752;17.108;2023-12-04T02:14:25;15.07;;;10.33;;
13102;SDS011;52970;46.752;17.108;2023-12-04T02:16:50;17.43;;;11.87;;
13102;SDS011;52970;46.752;17.108;2023-12-04T02:19:16;16.37;;;10.60;;
13102;SDS011;52970;46.752;17.108;2023-12-04T02:21:42;15.00;;;10.40;;
13102;SDS011;52970;46.752;17.108;2023-12-04T02:24:07;13.50;;;9.70;;
13102;SDS011;52970;46.752;17.108;2023-12-04T02:26:34;12.00;;;9.63;;
13102;SDS011;52970;46.752;17.108;2023-12-04T02:29:00;26.00;;;15.20;;
13102;SDS011;52970;46.752;17.108;2023-12-04T02:31:28;25.13;;;14.90;;
13102;SDS011;52970;46.752;17.108;2023-12-04T02:33:55;19.40;;;12.73;;
13102;SDS011;52970;46.752;17.108;2023-12-04T02:36:21;21.60;;;13.93;;
13102;SDS011;52970;46.752;17.108;2023-12-04T02:38:47;21.47;;;13.00;;
13102;SDS011;52970;46.752;17.108;2023-12-04T02:41:12;20.13;;;12.83;;
13102;SDS011;52970;46.752;17.108;2023-12-04T02:43:37;18.57;;;11.63;;
13102;SDS011;52970;46.752;17.108;2023-12-04T02:46:03;22.90;;;14.27;;
13102;SDS011;52970;46.752;17.108;2023-12-04T02:48:28;20.07;;;12.70;;
13102;SDS011;52970;46.752;17.108;2023-12-04T02:50:53;18.77;;;12.67;;
13102;SDS011;52970;46.752;17.108;2023-12-04T02:53:18;17.57;;;11.13;;
13102;SDS011;52970;46.752;17.108;2023-12-04T02:55:44;22.13;;;13.33;;
13102;SDS011;52970;46.752;17.108;2023-12-04T02:58:09;19.33;;;12.77;;
13102;SDS011;52970;46.752;17.108;2023-12-04T03:00:34;17.57;;;11.07;;
13102;SDS011;52970;46.752;17.108;2023-12-04T03:03:00;14.03;;;10.20;;
13102;SDS011;52970;46.752;17.108;2023-12-04T03:05:25;14.53;;;10.60;;
13102;SDS011;52970;46.752;17.108;2023-12-04T03:07:50;17.73;;;11.33;;
13102;SDS011;52970;46.752;17.108;2023-12-04T03:10:15;15.07;;;11.00;;
13102;SDS011;52970;46.752;17.108;2023-12-04T03:12:41;14.47;;;10.83;;
13102;SDS011;52970;46.752;17.108;2023-12-04T03:15:06;15.73;;;10.93;;
13102;SDS011;52970;46.752;17.108;2023-12-04T03:17:32;15.83;;;11.27;;
13102;SDS011;52970;46.752;17.108;2023-12-04T03:19:57;16.10;;;11.77;;
13102;SDS011;52970;46.752;17.108;2023-12-04T03:22:22;13.73;;;10.50;;
13102;SDS011;52970;46.752;17.108;2023-12-04T03:24:47;13.90;;;10.10;;
13102;SDS011;52970;46.752;17.108;2023-12-04T03:27:12;12.53;;;10.23;;
13102;SDS011;52970;46.752;17.108;2023-12-04T03:29:38;15.80;;;10.03;;
13102;SDS011;52970;46.752;17.108;2023-12-04T03:32:03;13.57;;;9.60;;
13102;SDS011;52970;46.752;17.108;2023-12-04T03:34:28;14.30;;;10.10;;
13102;SDS011;52970;46.752;17.108;2023-12-04T03:36:54;15.10;;;10.23;;
13102;SDS011;52970;46.752;17.108;2023-12-04T03:39:19;13.73;;;10.07;;
13102;SDS011;52970;46.752;17.108;2023-12-04T03:41:44;12.17;;;9.60;;
13102;SDS011;52970;46.752;17.108;2023-12-04T03:44:10;15.60;;;10.23;;
13102;SDS011;52970;46.752;17.108;2023-12-04T03:46:35;13.67;;;11.07;;
13102;SDS011;52970;46.752;17.108;2023-12-04T03:49:00;16.40;;;11.53;;
13102;SDS011;52970;46.752;17.108;2023-12-04T03:51:25;17.03;;;11.70;;
13102;SDS011;52970;46.752;17.108;2023-12-04T03:53:50;19.17;;;11.67;;
13102;SDS011;52970;46.752;17.108;2023-12-04T03:56:16;17.00;;;11.10;;
13102;SDS011;52970;46.752;17.108;2023-12-04T03:58:41;20.13;;;13.90;;
13102;SDS011;52970;46.752;17.108;2023-12-04T04:01:06;27.53;;;15.37;;
13102;SDS011;52970;46.752;17.108;2023-12-04T04:03:31;35.67;;;17.27;;
13102;SDS011;52970;46.752;17.108;2023-12-04T04:05:57;32.87;;;17.57;;
13102;SDS011;52970;46.752;17.108;2023-12-04T04:08:22;31.70;;;15.57;;
13102;SDS011;52970;46.752;17.108;2023-12-04T04:10:49;23.90;;;13.60;;
13102;SDS011;52970;46.752;17.108;2023-12-04T04:13:14;24.67;;;14.67;;
13102;SDS011;52970;46.752;17.108;2023-12-04T04:15:39;18.20;;;11.07;;
13102;SDS011;52970;46.752;17.108;2023-12-04T04:18:04;16.67;;;10.60;;
13102;SDS011;52970;46.752;17.108;2023-12-04T04:20:30;21.77;;;12.30;;
13102;SDS011;52970;46.752;17.108;2023-12-04T04:22:55;15.03;;;10.63;;
13102;SDS011;52970;46.752;17.108;2023-12-04T04:25:20;18.80;;;11.63;;
13102;SDS011;52970;46.752;17.108;2023-12-04T04:27:47;22.30;;;14.07;;
13102;SDS011;52970;46.752;17.108;2023-12-04T04:30:12;24.33;;;15.27;;
13102;SDS011;52970;46.752;17.108;2023-12-04T04:32:38;19.50;;;12.10;;
13102;SDS011;52970;46.752;17.108;2023-12-04T04:35:04;16.27;;;11.33;;
13102;SDS011;52970;46.752;17.108;2023-12-04T04:37:29;18.50;;;12.00;;
13102;SDS011;52970;46.752;17.108;2023-12-04T04:39:54;19.20;;;12.47;;
13102;SDS011;52970;46.752;17.108;2023-12-04T04:42:20;16.97;;;11.97;;
13102;SDS011;52970;46.752;17.108;2023-12-04T04:44:46;16.90;;;12.03;;
13102;SDS011;52970;46.752;17.108;2023-12-04T04:47:11;21.00;;;12.07;;
13102;SDS011;52970;46.752;17.108;2023-12-04T04:49:36;22.67;;;13.40;;
13102;SDS011;52970;46.752;17.108;2023-12-04T04:52:02;21.73;;;13.20;;
13102;SDS011;52970;46.752;17.108;2023-12-04T04:54:30;23.97;;;15.17;;
13102;SDS011;52970;46.752;17.108;2023-12-04T04:56:55;24.83;;;15.70;;
13102;SDS011;52970;46.752;17.108;2023-12-04T04:59:20;23.67;;;14.53;;
13102;SDS011;52970;46.752;17.108;2023-12-04T05:01:45;23.63;;;14.43;;
13102;SDS011;52970;46.752;17.108;2023-12-04T05:04:11;21.47;;;14.50;;
13102;SDS011;52970;46.752;17.108;2023-12-04T05:06:36;32.67;;;17.57;;
13102;SDS011;52970;46.752;17.108;2023-12-04T05:09:01;25.43;;;13.00;;
13102;SDS011;52970;46.752;17.108;2023-12-04T05:11:26;21.57;;;13.23;;
13102;SDS011;52970;46.752;17.108;2023-12-04T05:13:52;20.83;;;12.53;;
13102;SDS011;52970;46.752;17.108;2023-12-04T05:16:17;20.37;;;11.43;;
13102;SDS011;52970;46.752;17.108;2023-12-04T05:18:42;17.50;;;11.33;;
13102;SDS011;52970;46.752;17.108;2023-12-04T05:21:08;15.87;;;11.20;;
13102;SDS011;52970;46.752;17.108;2023-12-04T05:23:34;16.37;;;10.37;;
13102;SDS011;52970;46.752;17.108;2023-12-04T05:25:59;13.20;;;10.20;;
13102;SDS011;52970;46.752;17.108;2023-12-04T05:28:24;14.90;;;10.50;;
13102;SDS011;52970;46.752;17.108;2023-12-04T05:30:50;12.87;;;9.77;;
13102;SDS011;52970;46.752;17.108;2023-12-04T05:33:16;13.93;;;9.97;;
13102;SDS011;52970;46.752;17.108;2023-12-04T05:35:41;15.97;;;10.33;;
13102;SDS011;52970;46.752;17.108;2023-12-04T05:38:06;14.53;;;10.40;;
13102;SDS011;52970;46.752;17.108;2023-12-04T05:40:32;15.80;;;11.03;;
13102;SDS011;52970;46.752;17.108;2023-12-04T05:42:58;17.70;;;11.57;;
13102;SDS011;52970;46.752;17.108;2023-12-04T05:45:23;19.40;;;12.57;;
13102;SDS011;52970;46.752;17.108;2023-12-04T05:47:48;18.37;;;12.03;;
13102;SDS011;52970;46.752;17.108;2023-12-04T05:50:13;19.10;;;12.40;;
13102;SDS011;52970;46.752;17.108;2023-12-04T05:52:39;16.73;;;11.37;;
13102;SDS011;52970;46.752;17.108;2023-12-04T05:55:04;15.80;;;11.63;;
13102;SDS011;52970;46.752;17.108;2023-12-04T05:57:29;17.43;;;11.83;;
13102;SDS011;52970;46.752;17.108;2023-12-04T05:59:54;16.97;;;11.47;;
13102;SDS011;52970;46.752;17.108;2023-12-04T06:02:20;18.07;;;12.20;;
13102;SDS011;52970;46.752;17.108;2023-12-04T06:04:45;20.40;;;12.17;;
13102;SDS011;52970;46.752;17.108;2023-12-04T06:07:11;14.27;;;9.17;;
13102;SDS011;52970;46.752;17.108;2023-12-04T06:09:36;14.60;;;9.87;;
13102;SDS011;52970;46.752;17.108;2023-12-04T06:12:02;15.67;;;10.80;;
13102;SDS011;52970;46.752;17.108;2023-12-04T06:14:33;15.57;;;11.03;;
13102;SDS011;52970;46.752;17.108;2023-12-04T06:16:58;14.13;;;10.10;;
13102;SDS011;52970;46.752;17.108;2023-12-04T06:19:23;14.63;;;10.67;;
13102;SDS011;52970;46.752;17.108;2023-12-04T06:21:48;17.17;;;11.60;;
13102;SDS011;52970;46.752;17.108;2023-12-04T06:24:14;14.83;;;11.00;;
13102;SDS011;52970;46.752;17.108;2023-12-04T06:26:41;14.47;;;9.10;;
13102;SDS011;52970;46.752;17.108;2023-12-04T06:29:06;14.70;;;9.40;;
13102;SDS011;52970;46.752;17.108;2023-12-04T06:31:32;14.17;;;10.33;;
13102;SDS011;52970;46.752;17.108;2023-12-04T06:33:57;14.03;;;9.10;;
13102;SDS011;52970;46.752;17.108;2023-12-04T06:36:22;12.03;;;8.77;;
13102;SDS011;52970;46.752;17.108;2023-12-04T06:38:49;13.50;;;9.47;;
13102;SDS011;52970;46.752;17.108;2023-12-04T06:41:16;14.37;;;9.83;;
13102;SDS011;52970;46.752;17.108;2023-12-04T06:43:43;12.10;;;8.77;;
13102;SDS011;52970;46.752;17.108;2023-12-04T06:46:09;14.50;;;9.77;;
13102;SDS011;52970;46.752;17.108;2023-12-04T06:48:35;11.83;;;8.83;;
13102;SDS011;52970;46.752;17.108;2023-12-04T06:51:00;13.40;;;9.53;;
13102;SDS011;52970;46.752;17.108;2023-12-04T06:53:25;13.50;;;9.50;;
13102;SDS011;52970;46.752;17.108;2023-12-04T06:55:51;13.07;;;9.33;;
13102;SDS011;52970;46.752;17.108;2023-12-04T06:58:16;18.20;;;12.10;;
13102;SDS011;52970;46.752;17.108;2023-12-04T07:00:41;22.23;;;13.37;;
13102;SDS011;52970;46.752;17.108;2023-12-04T07:03:06;24.20;;;14.20;;
13102;SDS011;52970;46.752;17.108;2023-12-04T07:05:32;18.13;;;12.40;;
13102;SDS011;52970;46.752;17.108;2023-12-04T07:07:57;18.27;;;13.37;;
13102;SDS011;52970;46.752;17.108;2023-12-04T07:10:22;20.17;;;12.80;;
13102;SDS011;52970;46.752;17.108;2023-12-04T07:12:47;18.57;;;12.43;;
13102;SDS011;52970;46.752;17.108;2023-12-04T07:15:13;22.90;;;12.70;;
13102;SDS011;52970;46.752;17.108;2023-12-04T07:17:38;18.50;;;13.03;;
13102;SDS011;52970;46.752;17.108;2023-12-04T07:20:04;23.20;;;13.37;;
13102;SDS011;52970;46.752;17.108;2023-12-04T07:22:33;22.23;;;13.97;;
13102;SDS011;52970;46.752;17.108;2023-12-04T07:24:58;22.33;;;14.33;;
13102;SDS011;52970;46.752;17.108;2023-12-04T07:27:24;22.27;;;15.03;;
13102;SDS011;52970;46.752;17.108;2023-12-04T07:29:49;23.07;;;16.07;;
13102;SDS011;52970;46.752;17.108;2023-12-04T07:32:14;29.70;;;20.50;;
13102;SDS011;52970;46.752;17.108;2023-12-04T07:34:40;24.37;;;16.07;;
13102;SDS011;52970;46.752;17.108;2023-12-04T07:37:05;21.87;;;15.27;;
13102;SDS011;52970;46.752;17.108;2023-12-04T07:39:30;22.23;;;14.13;;
13102;SDS011;52970;46.752;17.108;2023-12-04T07:41:55;25.23;;;14.67;;
13102;SDS011;52970;46.752;17.108;2023-12-04T07:44:20;20.27;;;14.07;;
13102;SDS011;52970;46.752;17.108;2023-12-04T07:46:46;21.80;;;14.07;;
13102;SDS011;52970;46.752;17.108;2023-12-04T07:49:11;23.47;;;14.73;;
13102;SDS011;52970;46.752;17.108;2023-12-04T07:51:36;25.57;;;14.87;;
13102;SDS011;52970;46.752;17.108;2023-12-04T07:54:02;20.30;;;13.27;;
13102;SDS011;52970;46.752;17.108;2023-12-04T07:56:27;18.77;;;13.53;;
13102;SDS011;52970;46.752;17.108;2023-12-04T07:58:52;21.43;;;14.87;;
13102;SDS011;52970;46.752;17.108;2023-12-04T08:01:17;22.23;;;15.23;;
13102;SDS011;52970;46.752;17.108;2023-12-04T08:03:43;19.40;;;13.27;;
13102;SDS011;52970;46.752;17.108;2023-12-04T08:06:08;20.37;;;13.37;;
13102;SDS011;52970;46.752;17.108;2023-12-04T08:08:34;18.93;;;12.97;;
13102;SDS011;52970;46.752;17.108;2023-12-04T08:10:59;16.73;;;12.03;;
13102;SDS011;52970;46.752;17.108;2023-12-04T08:13:24;18.70;;;12.03;;
13102;SDS011;52970;46.752;17.108;2023-12-04T08:15:50;18.07;;;11.80;;
13102;SDS011;52970;46.752;17.108;2023-12-04T08:18:15;16.33;;;11.57;;
13102;SDS011;52970;46.752;17.108;2023-12-04T08:20:41;19.10;;;13.27;;
13102;SDS011;52970;46.752;17.108;2023-12-04T08:23:06;21.20;;;14.93;;
13102;SDS011;52970;46.752;17.108;2023-12-04T08:25:31;18.70;;;13.10;;
13102;SDS011;52970;46.752;17.108;2023-12-04T08:27:57;21.83;;;13.37;;
13102;SDS011;52970;46.752;17.108;2023-12-04T08:30:23;17.07;;;12.97;;
13102;SDS011;52970;46.752;17.108;2023-12-04T08:32:48;17.53;;;12.67;;
13102;SDS011;52970;46.752;17.108;2023-12-04T08:35:13;18.93;;;12.83;;
13102;SDS011;52970;46.752;17.108;2023-12-04T08:37:39;19.70;;;13.13;;
13102;SDS011;52970;46.752;17.108;2023-12-04T08:40:05;15.70;;;11.40;;
13102;SDS011;52970;46.752;17.108;2023-12-04T08:42:32;16.50;;;12.67;;
13102;SDS011;52970;46.752;17.108;2023-12-04T08:44:57;18.87;;;13.07;;
13102;SDS011;52970;46.752;17.108;2023-12-04T08:47:22;20.67;;;14.37;;
13102;SDS011;52970;46.752;17.108;2023-12-04T08:49:48;18.80;;;13.20;;
13102;SDS011;52970;46.752;17.108;2023-12-04T08:52:13;23.87;;;15.57;;
13102;SDS011;52970;46.752;17.108;2023-12-04T08:54:39;19.30;;;14.27;;
13102;SDS011;52970;46.752;17.108;2023-12-04T08:57:05;18.97;;;14.60;;
13102;SDS011;52970;46.752;17.108;2023-12-04T08:59:30;22.60;;;16.73;;
13102;SDS011;52970;46.752;17.108;2023-12-04T09:01:55;18.50;;;13.70;;
13102;SDS011;52970;46.752;17.108;2023-12-04T09:04:20;20.57;;;14.83;;
13102;SDS011;52970;46.752;17.108;2023-12-04T09:06:45;19.20;;;14.23;;
13102;SDS011;52970;46.752;17.108;2023-12-04T09:09:11;21.20;;;15.17;;
13102;SDS011;52970;46.752;17.108;2023-12-04T09:11:40;23.77;;;16.67;;
13102;SDS011;52970;46.752;17.108;2023-12-04T09:14:05;23.20;;;15.90;;
13102;SDS011;52970;46.752;17.108;2023-12-04T09:16:31;24.27;;;16.80;;
13102;SDS011;52970;46.752;17.108;2023-12-04T09:18:56;24.73;;;16.23;;
13102;SDS011;52970;46.752;17.108;2023-12-04T09:21:22;22.37;;;16.60;;
13102;SDS011;52970;46.752;17.108;2023-12-04T09:23:47;22.33;;;16.67;;
13102;SDS011;52970;46.752;17.108;2023-12-04T09:26:15;21.37;;;16.50;;
13102;SDS011;52970;46.752;17.108;2023-12-04T09:28:40;23.17;;;17.40;;
13102;SDS011;52970;46.752;17.108;2023-12-04T09:31:05;25.00;;;17.97;;
13102;SDS011;52970;46.752;17.108;2023-12-04T09:33:31;22.47;;;16.63;;
13102;SDS011;52970;46.752;17.108;2023-12-04T09:35:56;24.57;;;16.80;;
13102;SDS011;52970;46.752;17.108;2023-12-04T09:38:21;23.23;;;17.03;;
13102;SDS011;52970;46.752;17.108;2023-12-04T09:40:46;24.57;;;16.93;;
13102;SDS011;52970;46.752;17.108;2023-12-04T09:43:12;22.87;;;16.67;;
13102;SDS011;52970;46.752;17.108;2023-12-04T09:45:37;21.37;;;16.43;;
13102;SDS011;52970;46.752;17.108;2023-12-04T09:48:03;22.20;;;16.20;;
13102;SDS011;52970;46.752;17.108;2023-12-04T09:50:30;21.53;;;15.67;;
13102;SDS011;52970;46.752;17.108;2023-12-04T09:52:55;20.90;;;16.00;;
13102;SDS011;52970;46.752;17.108;2023-12-04T09:55:24;20.23;;;15.60;;
13102;SDS011;52970;46.752;17.108;2023-12-04T09:57:50;22.53;;;15.87;;
13102;SDS011;52970;46.752;17.108;2023-12-04T10:00:15;20.90;;;16.43;;
13102;SDS011;52970;46.752;17.108;2023-12-04T10:02:41;27.57;;;19.07;;
13102;SDS011;52970;46.752;17.108;2023-12-04T10:05:07;29.30;;;19.17;;
13102;SDS011;52970;46.752;17.108;2023-12-04T10:07:33;29.77;;;20.00;;
13102;SDS011;52970;46.752;17.108;2023-12-04T10:09:58;26.80;;;18.63;;
13102;SDS011;52970;46.752;17.108;2023-12-04T10:12:23;27.07;;;18.00;;
13102;SDS011;52970;46.752;17.108;2023-12-04T10:15:02;22.33;;;15.43;;
13102;SDS011;52970;46.752;17.108;2023-12-04T10:17:27;22.63;;;16.10;;
13102;SDS011;52970;46.752;17.108;2023-12-04T10:20:07;22.60;;;16.73;;
13102;SDS011;52970;46.752;17.108;2023-12-04T10:22:37;23.17;;;16.83;;
13102;SDS011;52970;46.752;17.108;2023-12-04T10:25:21;18.93;;;15.33;;
13102;SDS011;52970;46.752;17.108;2023-12-04T10:27:47;18.90;;;14.60;;
13102;SDS011;52970;46.752;17.108;2023-12-04T10:30:25;19.07;;;14.77;;
13102;SDS011;52970;46.752;17.108;2023-12-04T10:32:55;17.50;;;13.87;;
13102;SDS011;52970;46.752;17.108;2023-12-04T10:35:21;17.50;;;13.47;;
13102;SDS011;52970;46.752;17.108;2023-12-04T10:37:47;19.13;;;13.47;;
13102;SDS011;52970;46.752;17.108;2023-12-04T10:40:13;19.43;;;14.40;;
13102;SDS011;52970;46.752;17.108;2023-12-04T10:42:47;15.83;;;12.37;;
13102;SDS011;52970;46.752;17.108;2023-12-04T10:45:12;15.80;;;12.87;;
13102;SDS011;52970;46.752;17.108;2023-12-04T10:47:38;17.13;;;13.17;;
13102;SDS011;52970;46.752;17.108;2023-12-04T10:50:04;15.37;;;12.43;;
13102;SDS011;52970;46.752;17.108;2023-12-04T10:52:30;17.60;;;12.37;;
13102;SDS011;52970;46.752;17.108;2023-12-04T10:54:56;17.17;;;12.13;;
13102;SDS011;52970;46.752;17.108;2023-12-04T10:57:26;17.00;;;12.37;;
13102;SDS011;52970;46.752;17.108;2023-12-04T10:59:57;12.63;;;10.63;;
13102;SDS011;52970;46.752;17.108;2023-12-04T11:02:22;17.27;;;11.70;;
13102;SDS011;52970;46.752;17.108;2023-12-04T11:04:51;16.20;;;11.87;;
13102;SDS011;52970;46.752;17.108;2023-12-04T11:07:19;19.20;;;14.57;;
13102;SDS011;52970;46.752;17.108;2023-12-04T11:09:45;23.97;;;14.97;;
13102;SDS011;52970;46.752;17.108;2023-12-04T11:12:13;13.83;;;11.27;;
13102;SDS011;52970;46.752;17.108;2023-12-04T11:14:42;13.50;;;10.97;;
13102;SDS011;52970;46.752;17.108;2023-12-04T11:17:08;14.00;;;10.83;;
13102;SDS011;52970;46.752;17.108;2023-12-04T11:19:43;14.30;;;11.00;;
13102;SDS011;52970;46.752;17.108;2023-12-04T11:22:11;12.20;;;10.43;;
13102;SDS011;52970;46.752;17.108;2023-12-04T11:24:36;20.07;;;12.90;;
13102;SDS011;52970;46.752;17.108;2023-12-04T11:27:02;13.93;;;10.93;;
13102;SDS011;52970;46.752;17.108;2023-12-04T11:29:28;13.80;;;10.33;;
13102;SDS011;52970;46.752;17.108;2023-12-04T11:31:54;12.47;;;10.03;;
13102;SDS011;52970;46.752;17.108;2023-12-04T11:34:19;10.80;;;8.90;;
13102;SDS011;52970;46.752;17.108;2023-12-04T11:36:44;9.80;;;8.80;;
13102;SDS011;52970;46.752;17.108;2023-12-04T11:39:10;11.20;;;8.70;;
13102;SDS011;52970;46.752;17.108;2023-12-04T11:41:35;9.83;;;8.47;;
13102;SDS011;52970;46.752;17.108;2023-12-04T11:44:01;9.67;;;8.23;;
13102;SDS011;52970;46.752;17.108;2023-12-04T11:46:27;11.27;;;9.03;;
13102;SDS011;52970;46.752;17.108;2023-12-04T11:48:53;8.97;;;7.80;;
13102;SDS011;52970;46.752;17.108;2023-12-04T11:54:02;10.30;;;7.80;;
13102;SDS011;52970;46.752;17.108;2023-12-04T11:56:29;9.60;;;8.17;;
13102;SDS011;52970;46.752;17.108;2023-12-04T11:58:55;9.30;;;7.90;;
13102;SDS011;52970;46.752;17.108;2023-12-04T12:01:27;9.20;;;7.87;;
13102;SDS011;52970;46.752;17.108;2023-12-04T12:03:52;9.20;;;6.77;;
13102;SDS011;52970;46.752;17.108;2023-12-04T12:06:17;10.20;;;9.10;;
13102;SDS011;52970;46.752;17.108;2023-12-04T12:08:43;7.97;;;6.97;;
13102;SDS011;52970;46.752;17.108;2023-12-04T12:11:09;9.70;;;7.43;;
13102;SDS011;52970;46.752;17.108;2023-12-04T12:13:34;7.23;;;6.30;;
13102;SDS011;52970;46.752;17.108;2023-12-04T12:15:59;6.60;;;5.90;;
13102;SDS011;52970;46.752;17.108;2023-12-04T12:18:27;6.13;;;5.50;;
13102;SDS011;52970;46.752;17.108;2023-12-04T12:20:54;6.67;;;5.93;;
13102;SDS011;52970;46.752;17.108;2023-12-04T12:23:19;6.03;;;5.37;;
13102;SDS011;52970;46.752;17.108;2023-12-04T12:25:45;6.03;;;5.27;;
13102;SDS011;52970;46.752;17.108;2023-12-04T12:28:10;5.37;;;4.87;;
13102;SDS011;52970;46.752;17.108;2023-12-04T12:30:36;6.07;;;5.47;;
13102;SDS011;52970;46.752;17.108;2023-12-04T12:33:01;5.00;;;4.57;;
13102;SDS011;52970;46.752;17.108;2023-12-04T12:35:26;6.20;;;5.17;;
13102;SDS011;52970;46.752;17.108;2023-12-04T12:37:51;6.03;;;5.30;;
13102;SDS011;52970;46.752;17.108;2023-12-04T12:40:20;5.90;;;4.70;;
13102;SDS011;52970;46.752;17.108;2023-12-04T12:42:45;5.40;;;4.90;;
13102;SDS011;52970;46.752;17.108;2023-12-04T12:45:11;4.83;;;4.40;;
13102;SDS011;52970;46.752;17.108;2023-12-04T12:47:36;5.80;;;5.30;;
13102;SDS011;52970;46.752;17.108;2023-12-04T12:50:01;5.73;;;5.23;;
13102;SDS011;52970;46.752;17.108;2023-12-04T12:52:27;5.70;;;5.20;;
13102;SDS011;52970;46.752;17.108;2023-12-04T12:54:53;5.63;;;5.10;;
13102;SDS011;52970;46.752;17.108;2023-12-04T12:57:18;5.90;;;5.03;;
13102;SDS011;52970;46.752;17.108;2023-12-04T12:59:43;5.80;;;5.20;;
13102;SDS011;52970;46.752;17.108;2023-12-04T13:02:09;6.10;;;5.43;;
13102;SDS011;52970;46.752;17.108;2023-12-04T13:04:40;6.23;;;5.70;;
13102;SDS011;52970;46.752;17.108;2023-12-04T13:07:05;5.73;;;5.13;;
13102;SDS011;52970;46.752;17.108;2023-12-04T13:09:31;6.30;;;5.70;;
13102;SDS011;52970;46.752;17.108;2023-12-04T13:11:57;6.20;;;5.60;;
13102;SDS011;52970;46.752;17.108;2023-12-04T13:14:22;7.03;;;5.90;;
13102;SDS011;52970;46.752;17.108;2023-12-04T13:16:47;6.73;;;6.07;;
13102;SDS011;52970;46.752;17.108;2023-12-04T13:19:12;7.97;;;6.20;;
13102;SDS011;52970;46.752;17.108;2023-12-04T13:21:38;8.47;;;6.80;;
13102;SDS011;52970;46.752;17.108;2023-12-04T13:24:03;8.57;;;5.83;;
13102;SDS011;52970;46.752;17.108;2023-12-04T13:26:32;10.37;;;6.90;;
13102;SDS011;52970;46.752;17.108;2023-12-04T13:28:58;7.10;;;6.40;;
13102;SDS011;52970;46.752;17.108;2023-12-04T13:31:24;7.13;;;6.43;;
13102;SDS011;52970;46.752;17.108;2023-12-04T13:33:49;8.83;;;6.33;;
13102;SDS011;52970;46.752;17.108;2023-12-04T13:36:14;7.43;;;6.37;;
13102;SDS011;52970;46.752;17.108;2023-12-04T13:38:40;7.43;;;6.67;;
13102;SDS011;52970;46.752;17.108;2023-12-04T13:41:05;8.90;;;6.97;;
13102;SDS011;52970;46.752;17.108;2023-12-04T13:43:44;6.80;;;6.10;;
13102;SDS011;52970;46.752;17.108;2023-12-04T13:46:15;8.33;;;6.57;;
13102;SDS011;52970;46.752;17.108;2023-12-04T13:48:40;7.77;;;6.70;;
13102;SDS011;52970;46.752;17.108;2023-12-04T13:51:09;7.67;;;6.53;;
13102;SDS011;52970;46.752;17.108;2023-12-04T13:53:35;7.33;;;6.30;;
13102;SDS011;52970;46.752;17.108;2023-12-04T13:56:03;6.77;;;6.10;;
13102;SDS011;52970;46.752;17.108;2023-12-04T13:58:48;6.73;;;5.80;;
13102;SDS011;52970;46.752;17.108;2023-12-04T14:01:20;6.67;;;6.00;;
13102;SDS011;52970;46.752;17.108;2023-12-04T14:03:48;7.43;;;5.83;;
13102;SDS011;52970;46.752;17.108;2023-12-04T14:06:14;7.10;;;5.60;;
13102;SDS011;52970;46.752;17.108;2023-12-04T14:08:40;5.73;;;5.23;;